createdAt,value
2022-09-22T00:01:39.077Z,10.20
2022-09-22T00:04:13.557Z,10.20
2022-09-22T00:06:48.275Z,10.20
2022-09-22T00:09:18.875Z,10.20
2022-09-22T00:11:49.555Z,10.20
2022-09-22T00:14:20.686Z,10.20
2022-09-22T00:16:51.506Z,10.20
2022-09-22T00:19:23.736Z,10.20
2022-09-22T00:21:58.168Z,10.20
2022-09-22T00:24:31.937Z,10.20
2022-09-22T00:27:01.272Z,10.20
2022-09-22T00:29:33.506Z,10.20
2022-09-22T00:32:07.189Z,10.20
2022-09-22T00:34:37.958Z,10.10
2022-09-22T00:37:09.510Z,10.20
2022-09-22T00:39:38.275Z,10.10
2022-09-22T00:42:07.166Z,10.10
2022-09-22T00:44:40.207Z,10.10
2022-09-22T00:47:30.948Z,10.00
2022-09-22T00:50:07.397Z,10.00
2022-09-22T00:52:40.415Z,9.90
2022-09-22T00:55:14.624Z,9.80
2022-09-22T00:57:46.328Z,9.70
2022-09-22T01:00:16.450Z,9.70
2022-09-22T01:02:50.469Z,9.60
2022-09-22T01:05:23.990Z,9.50
2022-09-22T01:07:53.118Z,9.40
2022-09-22T01:10:21.465Z,9.40
2022-09-22T01:12:58.939Z,9.30
2022-09-22T01:15:36.105Z,9.30
2022-09-22T01:18:16.191Z,9.40
2022-09-22T01:21:15.898Z,9.50
2022-09-22T01:24:14.055Z,9.60
2022-09-22T01:27:04.978Z,9.60
2022-09-22T01:30:06.750Z,9.70
2022-09-22T01:32:47.000Z,9.70
2022-09-22T01:35:26.011Z,9.60
2022-09-22T01:38:04.815Z,9.60
2022-09-22T01:40:39.529Z,9.60
2022-09-22T01:43:17.202Z,9.60
2022-09-22T01:45:49.674Z,9.60
2022-09-22T01:48:24.955Z,9.60
2022-09-22T01:50:59.800Z,9.60
2022-09-22T01:53:38.016Z,9.60
2022-09-22T01:56:11.255Z,9.70
2022-09-22T01:58:44.974Z,9.70
2022-09-22T02:01:17.079Z,9.70
2022-09-22T02:03:59.275Z,9.90
2022-09-22T02:06:39.536Z,9.90
2022-09-22T02:09:13.099Z,9.80
2022-09-22T02:11:48.169Z,9.80
2022-09-22T02:14:17.783Z,9.70
2022-09-22T02:16:46.327Z,9.70
2022-09-22T02:19:20.969Z,9.70
2022-09-22T02:21:50.675Z,9.70
2022-09-22T02:24:30.158Z,9.70
2022-09-22T02:27:00.265Z,9.70
2022-09-22T02:29:34.374Z,9.70
2022-09-22T02:32:06.866Z,9.70
2022-09-22T02:34:36.827Z,9.80
2022-09-22T02:37:13.593Z,9.80
2022-09-22T02:39:49.170Z,9.80
2022-09-22T02:42:29.247Z,9.80
2022-09-22T02:45:06.797Z,9.80
2022-09-22T02:47:41.764Z,9.80
2022-09-22T02:50:14.926Z,9.80
2022-09-22T02:52:43.598Z,9.80
2022-09-22T02:55:15.849Z,9.80
2022-09-22T02:57:44.725Z,9.80
2022-09-22T03:00:14.362Z,9.80
2022-09-22T03:02:42.853Z,9.80
2022-09-22T03:05:13.107Z,9.80
2022-09-22T03:07:42.106Z,9.80
2022-09-22T03:10:12.764Z,9.90
2022-09-22T03:13:02.437Z,9.90
2022-09-22T03:15:31.699Z,9.90
2022-09-22T03:18:00.094Z,9.90
2022-09-22T03:20:30.581Z,9.90
2022-09-22T03:22:59.001Z,10.00
2022-09-22T03:25:27.881Z,10.00
2022-09-22T03:27:57.345Z,10.00
2022-09-22T03:30:28.724Z,10.00
2022-09-22T03:32:58.289Z,10.10
2022-09-22T03:35:26.778Z,10.10
2022-09-22T03:37:56.483Z,10.10
2022-09-22T03:40:25.344Z,10.10
2022-09-22T03:42:54.121Z,10.10
2022-09-22T03:45:22.927Z,10.10
2022-09-22T03:47:51.760Z,10.10
2022-09-22T03:50:20.769Z,10.10
2022-09-22T03:52:51.045Z,10.10
2022-09-22T03:55:21.828Z,10.00
2022-09-22T03:57:51.456Z,10.10
2022-09-22T04:00:20.696Z,10.10
2022-09-22T04:02:49.237Z,10.00
2022-09-22T04:05:17.791Z,10.00
2022-09-22T04:15:23.370Z,10.00
2022-09-22T04:18:38.043Z,9.90
2022-09-22T04:21:59.015Z,9.90
2022-09-22T04:36:25.219Z,9.70
2022-09-22T04:39:35.793Z,9.50
2022-09-22T04:42:16.501Z,9.40
2022-09-22T04:44:46.622Z,9.30
2022-09-22T04:47:16.082Z,9.20
2022-09-22T04:49:47.082Z,9.30
2022-09-22T04:52:16.088Z,9.40
2022-09-22T04:54:45.325Z,9.40
2022-09-22T04:57:17.190Z,9.30
2022-09-22T04:59:49.431Z,9.30
2022-09-22T05:02:20.866Z,9.20
2022-09-22T05:05:04.711Z,9.10
2022-09-22T05:07:33.384Z,9.10
2022-09-22T05:10:02.955Z,9.00
2022-09-22T05:12:31.698Z,8.80
2022-09-22T05:15:00.670Z,8.70
2022-09-22T05:17:29.900Z,8.60
2022-09-22T05:19:59.806Z,8.60
2022-09-22T05:22:28.390Z,8.60
2022-09-22T05:24:56.849Z,8.60
2022-09-22T05:27:26.703Z,8.60
2022-09-22T05:29:55.467Z,8.60
2022-09-22T05:32:23.652Z,8.70
2022-09-22T05:34:53.417Z,8.80
2022-09-22T05:37:25.662Z,8.90
2022-09-22T05:39:54.303Z,8.90
2022-09-22T05:42:38.341Z,9.00
2022-09-22T05:45:07.954Z,9.00
2022-09-22T05:47:39.134Z,9.10
2022-09-22T05:50:10.308Z,9.20
2022-09-22T05:52:41.829Z,9.20
2022-09-22T05:55:13.146Z,9.30
2022-09-22T05:57:44.211Z,9.30
2022-09-22T06:00:14.480Z,9.40
2022-09-22T06:02:47.423Z,9.50
2022-09-22T06:05:19.465Z,9.50
2022-09-22T06:07:59.960Z,9.60
2022-09-22T06:10:29.866Z,9.70
2022-09-22T06:13:02.033Z,9.90
2022-09-22T06:15:35.905Z,10.10
2022-09-22T06:18:15.158Z,10.20
2022-09-22T06:20:45.244Z,10.40
2022-09-22T06:23:17.889Z,10.70
2022-09-22T06:25:46.441Z,10.80
2022-09-22T06:28:20.176Z,11.10
2022-09-22T06:30:50.225Z,11.30
2022-09-22T06:33:21.886Z,11.40
2022-09-22T06:35:55.324Z,11.60
2022-09-22T06:38:26.971Z,11.70
2022-09-22T06:41:01.452Z,11.70
2022-09-22T06:43:30.442Z,11.70
2022-09-22T06:46:03.129Z,11.80
2022-09-22T06:48:32.308Z,12.00
2022-09-22T06:51:05.219Z,13.20
2022-09-22T06:53:35.409Z,14.50
2022-09-22T06:56:06.118Z,16.30
2022-09-22T06:58:52.410Z,17.60
2022-09-22T07:01:31.478Z,18.40
2022-09-22T07:04:01.246Z,20.30
2022-09-22T07:06:31.572Z,21.50
2022-09-22T07:09:02.292Z,22.50
2022-09-22T07:11:32.777Z,23.90
2022-09-22T07:14:04.624Z,24.50
2022-09-22T07:16:33.277Z,25.40
2022-09-22T07:19:02.131Z,25.10
2022-09-22T07:21:35.337Z,25.20
2022-09-22T07:24:08.486Z,25.50
2022-09-22T07:26:44.158Z,25.00
2022-09-22T07:29:16.782Z,24.70
2022-09-22T07:31:45.696Z,25.70
2022-09-22T07:34:14.213Z,26.20
2022-09-22T07:36:42.507Z,26.60
2022-09-22T07:39:13.864Z,26.20
2022-09-22T07:41:45.109Z,25.70
2022-09-22T07:44:32.925Z,24.90
2022-09-22T07:47:03.150Z,24.80
2022-09-22T07:49:32.852Z,25.60
2022-09-22T07:52:01.222Z,25.90
2022-09-22T07:54:34.268Z,25.80
2022-09-22T07:57:12.277Z,25.80
2022-09-22T07:59:44.140Z,26.30
2022-09-22T08:02:15.173Z,26.50
2022-09-22T08:04:44.033Z,25.60
2022-09-22T08:07:13.201Z,25.20
2022-09-22T08:09:43.345Z,24.70
2022-09-22T08:12:15.460Z,24.60
2022-09-22T08:14:44.099Z,24.40
2022-09-22T08:17:13.236Z,23.40
2022-09-22T08:19:41.804Z,22.30
2022-09-22T08:22:13.660Z,21.60
2022-09-22T08:24:45.219Z,20.90
2022-09-22T08:27:21.874Z,20.10
2022-09-22T08:29:51.041Z,19.40
2022-09-22T08:32:20.298Z,19.30
2022-09-22T08:34:48.953Z,19.60
2022-09-22T08:37:18.357Z,19.70
2022-09-22T08:39:48.951Z,19.60
2022-09-22T08:42:25.944Z,19.50
2022-09-22T08:45:07.250Z,19.70
2022-09-22T08:47:59.893Z,20.10
2022-09-22T08:50:56.232Z,20.00
2022-09-22T08:53:25.365Z,19.70
2022-09-22T08:56:07.628Z,19.50
2022-09-22T08:58:43.195Z,19.60
2022-09-22T09:01:31.015Z,20.00
2022-09-22T09:04:18.078Z,20.10
2022-09-22T09:06:52.975Z,20.30
2022-09-22T09:09:43.791Z,20.30
2022-09-22T09:12:45.357Z,20.50
2022-09-22T09:15:28.911Z,20.60
2022-09-22T09:18:03.881Z,20.70
2022-09-22T09:20:39.184Z,20.90
2022-09-22T09:23:14.549Z,22.00
2022-09-22T09:25:44.567Z,22.70
2022-09-22T09:28:18.880Z,22.20
2022-09-22T09:30:52.437Z,22.20
2022-09-22T09:33:30.333Z,22.00
2022-09-22T09:35:59.976Z,22.80
2022-09-22T09:38:32.427Z,23.20
2022-09-22T09:41:11.009Z,23.70
2022-09-22T09:43:45.226Z,25.00
2022-09-22T09:46:27.761Z,26.20
2022-09-22T09:49:10.796Z,26.50
2022-09-22T09:51:46.117Z,27.30
2022-09-22T09:54:17.889Z,28.80
2022-09-22T09:57:11.479Z,28.30
2022-09-22T10:00:00.586Z,26.60
2022-09-22T10:02:33.153Z,24.50
2022-09-22T10:05:03.368Z,24.60
2022-09-22T10:07:40.925Z,24.70
2022-09-22T10:10:32.987Z,24.80
2022-09-22T10:13:26.061Z,24.60
2022-09-22T10:16:22.032Z,23.80
2022-09-22T10:18:52.080Z,24.20
2022-09-22T10:21:22.043Z,25.20
2022-09-22T10:23:51.773Z,25.00
2022-09-22T10:26:23.523Z,24.70
2022-09-22T10:29:10.719Z,25.00
2022-09-22T10:31:42.440Z,25.20
2022-09-22T10:34:31.464Z,25.60
2022-09-22T10:37:04.105Z,25.20
2022-09-22T10:39:54.568Z,25.00
2022-09-22T10:42:32.004Z,24.70
2022-09-22T10:45:07.876Z,23.70
2022-09-22T10:47:57.608Z,23.60
2022-09-22T10:50:57.580Z,24.30
2022-09-22T10:53:43.006Z,24.70
2022-09-22T10:56:20.363Z,23.90
2022-09-22T10:59:17.394Z,23.90
2022-09-22T11:02:00.762Z,23.40
2022-09-22T11:05:00.762Z,23.10
2022-09-22T11:08:08.218Z,23.10
2022-09-22T11:11:02.999Z,22.80
2022-09-22T11:13:45.727Z,22.60
2022-09-22T11:16:29.333Z,22.40
2022-09-22T11:19:15.733Z,22.70
2022-09-22T11:22:05.576Z,22.70
2022-09-22T11:24:52.586Z,22.40
2022-09-22T11:27:27.687Z,22.90
2022-09-22T11:30:11.585Z,23.00
2022-09-22T11:33:08.457Z,22.50
2022-09-22T11:36:01.632Z,22.80
2022-09-22T11:38:59.872Z,22.70
2022-09-22T11:42:09.421Z,22.50
2022-09-22T11:44:43.997Z,23.00
2022-09-22T11:47:39.610Z,22.90
2022-09-22T11:50:26.138Z,23.00
2022-09-22T11:53:09.930Z,22.60
2022-09-22T11:55:48.290Z,22.30
2022-09-22T11:58:22.864Z,22.70
2022-09-22T12:00:57.846Z,22.70
2022-09-22T12:03:32.387Z,22.90
2022-09-22T12:06:12.285Z,22.50
2022-09-22T12:08:47.653Z,22.50
2022-09-22T12:11:22.699Z,22.20
2022-09-22T12:13:53.689Z,22.00
2022-09-22T12:16:27.645Z,22.00
2022-09-22T12:19:02.700Z,22.30
2022-09-22T12:21:47.057Z,22.50
2022-09-22T12:24:16.097Z,23.00
2022-09-22T12:26:49.211Z,23.90
2022-09-22T12:29:28.160Z,23.20
2022-09-22T12:31:59.158Z,23.20
2022-09-22T12:34:30.625Z,23.60
2022-09-22T12:37:09.681Z,22.90
2022-09-22T12:39:43.641Z,22.60
2022-09-22T12:42:22.745Z,22.40
2022-09-22T12:44:54.892Z,22.40
2022-09-22T12:47:30.199Z,22.30
2022-09-22T12:50:00.350Z,22.60
2022-09-22T12:53:02.968Z,22.50
2022-09-22T12:55:38.758Z,22.10
2022-09-22T12:58:44.332Z,21.80
2022-09-22T13:01:33.756Z,21.70
2022-09-22T13:04:23.850Z,21.50
2022-09-22T13:06:59.554Z,22.20
2022-09-22T13:09:31.942Z,22.40
2022-09-22T13:12:29.780Z,22.80
2022-09-22T13:15:02.714Z,23.20
2022-09-22T13:17:37.466Z,22.90
2022-09-22T13:20:16.219Z,22.70
2022-09-22T13:22:45.627Z,22.60
2022-09-22T13:25:23.317Z,23.10
2022-09-22T13:28:05.399Z,23.10
2022-09-22T13:30:35.951Z,23.30
2022-09-22T13:33:04.855Z,23.10
2022-09-22T13:35:37.819Z,23.70
2022-09-22T13:38:07.382Z,23.90
2022-09-22T13:40:36.131Z,23.70
2022-09-22T13:43:10.970Z,24.40
2022-09-22T13:45:41.617Z,25.00
2022-09-22T13:48:16.095Z,24.50
2022-09-22T13:50:54.526Z,23.90
2022-09-22T13:53:23.620Z,23.40
2022-09-22T13:55:53.867Z,23.40
2022-09-22T13:58:27.335Z,24.10
2022-09-22T14:01:14.155Z,24.50
2022-09-22T14:03:46.601Z,24.50
2022-09-22T14:06:18.736Z,23.90
2022-09-22T14:08:49.540Z,23.60
2022-09-22T14:11:20.291Z,24.70
2022-09-22T14:14:00.267Z,26.00
2022-09-22T14:16:35.989Z,26.40
2022-09-22T14:19:09.989Z,26.30
2022-09-22T14:21:46.650Z,26.10
2022-09-22T14:24:17.079Z,26.00
2022-09-22T14:26:48.240Z,24.80
2022-09-22T14:29:21.688Z,24.20
2022-09-22T14:31:55.404Z,24.20
2022-09-22T14:34:37.074Z,24.40
2022-09-22T14:37:17.899Z,24.70
2022-09-22T14:39:46.896Z,25.00
2022-09-22T14:42:23.034Z,24.70
2022-09-22T14:44:52.795Z,24.30
2022-09-22T14:47:30.219Z,24.00
2022-09-22T14:50:20.309Z,24.40
2022-09-22T14:53:06.978Z,24.30
2022-09-22T14:55:39.511Z,24.60
2022-09-22T14:58:15.874Z,24.90
2022-09-22T15:01:13.558Z,24.80
2022-09-22T15:03:56.005Z,25.20
2022-09-22T15:06:25.291Z,24.90
2022-09-22T15:08:55.078Z,25.20
2022-09-22T15:11:48.914Z,24.80
2022-09-22T15:14:40.933Z,24.50
2022-09-22T15:17:55.212Z,24.20
2022-09-22T15:20:29.258Z,24.40
2022-09-22T15:22:58.799Z,24.50
2022-09-22T15:25:27.368Z,24.00
2022-09-22T15:27:55.803Z,23.30
2022-09-22T15:30:25.590Z,23.70
2022-09-22T15:32:53.888Z,23.70
2022-09-22T15:35:27.540Z,23.40
2022-09-22T15:37:56.391Z,23.50
2022-09-22T15:40:25.371Z,23.10
2022-09-22T15:43:12.101Z,23.30
2022-09-22T15:45:48.702Z,23.70
2022-09-22T15:48:24.949Z,24.00
2022-09-22T15:50:56.093Z,23.50
2022-09-22T15:53:25.394Z,23.10
2022-09-22T15:55:55.695Z,22.50
2022-09-22T15:58:24.596Z,22.30
2022-09-22T16:00:54.087Z,22.20
2022-09-22T16:03:24.435Z,22.30
2022-09-22T16:05:57.400Z,22.70
2022-09-22T16:08:33.558Z,22.70
2022-09-22T16:11:05.905Z,22.20
2022-09-22T16:13:34.914Z,21.90
2022-09-22T16:16:04.547Z,21.40
2022-09-22T16:18:35.933Z,21.40
2022-09-22T16:21:23.578Z,21.40
2022-09-22T16:23:53.728Z,21.30
2022-09-22T16:26:22.763Z,20.80
2022-09-22T16:28:54.070Z,20.30
2022-09-22T16:31:23.388Z,19.80
2022-09-22T16:33:54.168Z,19.70
2022-09-22T16:36:25.399Z,19.60
2022-09-22T16:38:56.003Z,19.20
2022-09-22T16:41:26.351Z,18.70
2022-09-22T16:43:56.231Z,18.10
2022-09-22T16:46:28.987Z,17.50
2022-09-22T16:48:59.366Z,16.80
2022-09-22T16:51:29.767Z,16.10
2022-09-22T16:53:58.956Z,15.40
2022-09-22T16:56:29.495Z,14.90
2022-09-22T16:59:01.481Z,14.40
2022-09-22T17:01:32.078Z,14.00
2022-09-22T17:04:00.772Z,13.60
2022-09-22T17:06:32.171Z,13.20
2022-09-22T17:09:02.076Z,12.80
2022-09-22T17:11:35.134Z,12.50
2022-09-22T17:14:12.072Z,12.20
2022-09-22T17:16:48.807Z,12.00
2022-09-22T17:19:19.637Z,11.80
2022-09-22T17:21:51.182Z,11.60
2022-09-22T17:24:20.619Z,11.50
2022-09-22T17:26:52.748Z,11.40
2022-09-22T17:29:23.479Z,11.30
2022-09-22T17:31:56.667Z,11.10
2022-09-22T17:34:25.904Z,11.00
2022-09-22T17:36:56.244Z,10.80
2022-09-22T17:39:25.783Z,10.70
2022-09-22T17:41:58.020Z,10.60
2022-09-22T17:44:28.885Z,10.40
2022-09-22T17:47:14.602Z,10.30
2022-09-22T17:50:00.754Z,10.20
2022-09-22T17:52:48.098Z,10.10
2022-09-22T17:55:26.771Z,10.00
2022-09-22T17:57:56.474Z,9.90
2022-09-22T18:00:26.664Z,10.00
2022-09-22T18:02:55.733Z,10.00
2022-09-22T18:05:27.031Z,10.00
2022-09-22T18:07:58.813Z,9.90
2022-09-22T18:10:34.227Z,9.90
2022-09-22T18:13:04.703Z,9.80
2022-09-22T18:15:36.962Z,9.80
2022-09-22T18:18:11.282Z,9.70
2022-09-22T18:20:39.840Z,9.50
2022-09-22T18:23:12.453Z,9.40
2022-09-22T18:25:41.606Z,9.30
2022-09-22T18:28:10.190Z,9.30
2022-09-22T18:30:40.803Z,9.20
2022-09-22T18:33:09.870Z,9.00
2022-09-22T18:35:38.420Z,9.00
2022-09-22T18:38:07.946Z,8.90
2022-09-22T18:40:38.135Z,8.80
2022-09-22T18:43:10.564Z,8.80
2022-09-22T18:45:39.102Z,9.00
2022-09-22T18:48:08.360Z,9.00
2022-09-22T18:50:40.998Z,8.90
2022-09-22T18:53:10.610Z,8.90
2022-09-22T18:55:41.204Z,8.80
2022-09-22T18:58:10.238Z,8.70
2022-09-22T19:00:38.831Z,8.60
2022-09-22T19:03:07.991Z,8.60
2022-09-22T19:05:36.636Z,8.60
2022-09-22T19:08:05.252Z,8.60
2022-09-22T19:10:33.851Z,8.50
2022-09-22T19:13:04.299Z,8.40
2022-09-22T19:15:33.184Z,8.30
2022-09-22T19:18:02.086Z,8.30
2022-09-22T19:20:31.508Z,8.20
2022-09-22T19:23:00.383Z,8.10
2022-09-22T19:25:29.535Z,8.10
2022-09-22T19:27:58.389Z,8.20
2022-09-22T19:30:31.502Z,8.20
2022-09-22T19:33:00.610Z,8.20
2022-09-22T19:35:30.515Z,8.20
2022-09-22T19:37:58.978Z,8.20
2022-09-22T19:40:27.618Z,8.20
2022-09-22T19:42:56.082Z,8.10
2022-09-22T19:45:27.357Z,8.20
2022-09-22T19:47:58.742Z,8.20
2022-09-22T19:50:27.484Z,8.30
2022-09-22T19:52:55.771Z,8.30
2022-09-22T19:55:24.455Z,8.30
2022-09-22T19:57:54.223Z,8.20
2022-09-22T20:00:26.533Z,8.20
2022-09-22T20:02:59.443Z,8.20
2022-09-22T20:05:29.901Z,8.10
2022-09-22T20:07:58.304Z,8.00
2022-09-22T20:10:26.709Z,7.90
2022-09-22T20:12:55.427Z,7.80
2022-09-22T20:15:24.051Z,7.70
2022-09-22T20:17:52.497Z,7.60
2022-09-22T20:20:25.399Z,7.50
2022-09-22T20:23:00.378Z,7.40
2022-09-22T20:25:31.906Z,7.40
2022-09-22T20:28:00.508Z,7.40
2022-09-22T20:30:29.284Z,7.60
2022-09-22T20:32:57.737Z,7.70
2022-09-22T20:35:28.244Z,7.90
2022-09-22T20:37:58.370Z,8.00
2022-09-22T20:40:28.050Z,8.00
2022-09-22T20:42:56.330Z,8.10
2022-09-22T20:45:25.315Z,8.10
2022-09-22T20:47:53.647Z,8.00
2022-09-22T20:50:22.447Z,7.90
2022-09-22T20:52:52.369Z,7.80
2022-09-22T20:55:22.174Z,7.70
2022-09-22T20:57:50.600Z,7.60
2022-09-22T21:00:19.101Z,7.70
2022-09-22T21:02:47.587Z,7.60
2022-09-22T21:05:16.204Z,7.50
2022-09-22T21:07:44.564Z,7.50
2022-09-22T21:10:31.843Z,7.50
2022-09-22T21:13:00.578Z,7.40
2022-09-22T21:15:30.146Z,7.30
2022-09-22T21:17:58.818Z,7.20
2022-09-22T21:20:27.315Z,7.10
2022-09-22T21:22:55.782Z,7.30
2022-09-22T21:25:26.363Z,7.40
2022-09-22T21:27:55.057Z,7.30
2022-09-22T21:30:23.689Z,7.40
2022-09-22T21:32:52.059Z,7.40
2022-09-22T21:35:20.355Z,7.40
2022-09-22T21:37:48.684Z,7.50
2022-09-22T21:40:17.729Z,7.60
2022-09-22T21:42:47.570Z,7.60
2022-09-22T21:45:15.945Z,7.50
2022-09-22T21:47:44.739Z,7.50
2022-09-22T21:50:13.318Z,7.50
2022-09-22T21:52:44.240Z,7.40
2022-09-22T21:55:13.403Z,7.40
2022-09-22T21:57:41.844Z,7.40
2022-09-22T22:00:16.093Z,7.30
2022-09-22T22:03:02.311Z,7.30
2022-09-22T22:05:31.251Z,7.30
2022-09-22T22:07:59.671Z,7.30
2022-09-22T22:10:28.104Z,7.30
2022-09-22T22:12:56.705Z,7.30
2022-09-22T22:15:26.487Z,7.40
2022-09-22T22:17:55.338Z,7.50
2022-09-22T22:20:23.890Z,7.60
2022-09-22T22:22:52.345Z,7.60
2022-09-22T22:25:21.061Z,7.60
2022-09-22T22:27:49.368Z,7.70
2022-09-22T22:30:18.193Z,7.70
2022-09-22T22:32:48.226Z,7.80
2022-09-22T22:35:18.455Z,7.80
2022-09-22T22:37:47.299Z,7.90
2022-09-22T22:40:16.540Z,8.00
2022-09-22T22:42:47.540Z,8.20
2022-09-22T22:45:16.246Z,8.30
2022-09-22T22:47:51.614Z,8.50
2022-09-22T22:50:20.287Z,8.70
2022-09-22T22:52:49.272Z,8.90
2022-09-22T22:55:17.703Z,9.00
2022-09-22T22:57:46.043Z,9.10
2022-09-22T23:00:15.344Z,9.20
2022-09-22T23:02:43.983Z,9.30
2022-09-22T23:05:16.396Z,9.40
2022-09-22T23:07:45.188Z,9.40
2022-09-22T23:10:13.897Z,9.50
2022-09-22T23:12:45.237Z,9.50
2022-09-22T23:15:14.112Z,9.60
2022-09-22T23:17:42.573Z,9.70
2022-09-22T23:20:13.124Z,9.70
2022-09-22T23:22:44.110Z,9.70
2022-09-22T23:25:14.534Z,9.70
2022-09-22T23:27:48.515Z,9.70
2022-09-22T23:30:19.123Z,9.70
2022-09-22T23:32:47.357Z,9.70
2022-09-22T23:35:15.701Z,9.70
2022-09-22T23:37:45.493Z,9.70
2022-09-22T23:40:17.457Z,9.70
2022-09-22T23:42:45.810Z,9.70
2022-09-22T23:45:15.630Z,9.70
2022-09-22T23:47:44.098Z,9.70
2022-09-22T23:50:12.526Z,9.80
2022-09-22T23:52:41.658Z,9.80
2022-09-22T23:55:12.047Z,9.80
2022-09-22T23:57:40.477Z,9.90
